Time;durP1;ratioP1;P1;durP2;ratioP2;P2;SDS_P1;SDS_P2;PMS_P1;PMS_P2;Temp;Humidity;BMP_temperature;BMP_pressure;BME280_temperature;BME280_humidity;BME280_pressure;Samples;Min_cycle;Max_cycle;Signal;HPM_P1;HPM_P2
2022/06/21 00:01:28;;;;;;;2.13;1.93;;;17.60;90.40;;;;;;5080023;28;20725;-47
2022/06/21 00:03:55;;;;;;;2.10;1.90;;;17.60;90.30;;;;;;5079922;28;20535;-46
2022/06/21 00:06:24;;;;;;;2.63;2.00;;;17.70;90.40;;;;;;5079646;28;20174;-45
2022/06/21 00:08:50;;;;;;;2.10;1.90;;;17.60;90.40;;;;;;5080120;28;20748;-47
2022/06/21 00:11:31;;;;;;;1.90;1.70;;;17.70;90.40;;;;;;5079817;28;20428;-48
2022/06/21 00:13:56;;;;;;;2.37;1.87;;;17.70;90.30;;;;;;5079012;28;20473;-48
2022/06/21 00:16:24;;;;;;;2.30;2.10;;;17.70;90.10;;;;;;5079171;28;20420;-49
2022/06/21 00:18:50;;;;;;;2.67;1.70;;;17.70;90.10;;;;;;5077491;28;20521;-49
2022/06/21 00:21:19;;;;;;;2.80;1.67;;;17.70;90.10;;;;;;5077656;28;20473;-46
2022/06/21 00:23:47;;;;;;;3.10;1.90;;;17.70;90.00;;;;;;5078295;28;21020;-48
2022/06/21 00:26:14;;;;;;;1.73;1.63;;;17.70;90.30;;;;;;5078564;28;20435;-46
2022/06/21 00:28:40;;;;;;;3.60;1.93;;;17.70;90.30;;;;;;5077991;28;20413;-48
2022/06/21 00:31:16;;;;;;;4.23;1.60;;;17.50;90.50;;;;;;5077528;28;20469;-45
2022/06/21 00:33:42;;;;;;;2.23;2.03;;;17.50;91.00;;;;;;5076975;28;20186;-45
2022/06/21 00:36:23;;;;;;;2.07;1.70;;;17.50;91.40;;;;;;5078205;28;20698;-48
2022/06/21 00:38:50;;;;;;;2.20;1.87;;;17.60;91.10;;;;;;5079466;28;20183;-47
2022/06/21 00:41:18;;;;;;;1.90;1.67;;;17.60;91.10;;;;;;5078586;28;20845;-47
2022/06/21 00:43:48;;;;;;;2.00;1.80;;;17.70;91.40;;;;;;5061487;28;20424;-44
2022/06/21 00:46:30;;;;;;;2.73;2.07;;;17.80;91.50;;;;;;5078149;28;20443;-46
2022/06/21 00:48:56;;;;;;;2.37;2.17;;;17.90;91.00;;;;;;5079598;28;20423;-45
2022/06/21 00:51:37;;;;;;;2.80;1.90;;;17.90;90.90;;;;;;5078280;28;20425;-45
2022/06/21 00:54:31;;;;;;;1.90;1.80;;;17.90;90.90;;;;;;5079604;28;20889;-46
2022/06/21 00:57:01;;;;;;;1.70;1.60;;;17.90;90.90;;;;;;5072915;28;20739;-46
2022/06/21 00:59:29;;;;;;;2.40;1.53;;;17.90;90.90;;;;;;5077234;28;20453;-50
2022/06/21 01:02:18;;;;;;;3.03;2.33;;;17.80;91.10;;;;;;5078678;28;20502;-47
2022/06/21 01:04:46;;;;;;;2.40;1.70;;;17.90;91.40;;;;;;5069413;28;20429;-49
2022/06/21 01:07:12;;;;;;;2.20;1.90;;;17.90;91.40;;;;;;5077454;28;20399;-47
2022/06/21 01:09:56;;;;;;;2.67;2.03;;;17.90;91.40;;;;;;5077779;28;20516;-50
2022/06/21 01:12:29;;;;;;;2.13;1.83;;;18.00;91.20;;;;;;5078759;28;20811;-49
2022/06/21 01:15:00;;;;;;;2.60;2.10;;;17.90;91.00;;;;;;5078028;28;20411;-46
2022/06/21 01:17:28;;;;;;;1.67;1.57;;;17.90;90.70;;;;;;5077747;28;20473;-45
2022/06/21 01:20:04;;;;;;;1.87;1.67;;;17.90;91.00;;;;;;5077365;28;20460;-49
2022/06/21 01:23:02;;;;;;;2.33;1.97;;;18.00;91.30;;;;;;5077634;28;20416;-48
2022/06/21 01:25:43;;;;;;;3.43;1.87;;;18.00;91.00;;;;;;5042029;28;20510;-50
2022/06/21 01:28:09;;;;;;;3.07;1.90;;;18.00;91.20;;;;;;5078588;28;20474;-47
2022/06/21 01:30:36;;;;;;;2.17;1.97;;;18.00;90.90;;;;;;5078079;28;20474;-48
2022/06/21 01:33:02;;;;;;;3.10;1.97;;;18.00;90.70;;;;;;5077923;28;20412;-47
2022/06/21 01:35:37;;;;;;;1.57;1.47;;;17.90;90.90;;;;;;5077633;28;20428;-46
2022/06/21 01:38:04;;;;;;;2.40;2.03;;;17.80;91.00;;;;;;5078364;28;20842;-45
2022/06/21 01:40:34;;;;;;;2.00;1.77;;;17.70;91.10;;;;;;5077140;28;20475;-45
2022/06/21 01:43:03;;;;;;;2.07;1.70;;;17.60;91.20;;;;;;5076922;28;20421;-45
2022/06/21 01:45:36;;;;;;;2.03;1.63;;;17.50;91.30;;;;;;5077785;28;20428;-46
2022/06/21 01:48:22;;;;;;;3.03;2.00;;;17.30;91.50;;;;;;5077293;28;20488;-47
2022/06/21 01:50:51;;;;;;;1.73;1.53;;;17.20;91.90;;;;;;5076410;28;20729;-46
2022/06/21 01:53:19;;;;;;;3.80;2.40;;;17.10;92.20;;;;;;5077616;28;20721;-49
2022/06/21 01:55:53;;;;;;;5.00;2.03;;;17.10;92.10;;;;;;5077735;28;20816;-49
2022/06/21 01:58:25;;;;;;;3.33;1.80;;;17.10;92.10;;;;;;5076320;28;20435;-50
2022/06/21 02:00:58;;;;;;;3.23;2.10;;;17.10;92.20;;;;;;5077345;28;20473;-45
2022/06/21 02:03:32;;;;;;;2.50;2.30;;;17.00;92.00;;;;;;5077701;28;20518;-46
2022/06/21 02:06:05;;;;;;;3.50;1.90;;;16.90;91.40;;;;;;5076707;28;20482;-46
2022/06/21 02:08:50;;;;;;;2.27;1.63;;;16.80;91.90;;;;;;5078104;28;20744;-47
2022/06/21 02:11:37;;;;;;;2.40;1.70;;;16.80;92.20;;;;;;5076365;28;20440;-48
2022/06/21 02:16:51;;;;;;;2.10;1.87;;;16.70;92.00;;;;;;5076422;28;20839;-46
2022/06/21 02:19:30;;;;;;;3.20;2.07;;;16.70;92.10;;;;;;5077510;28;20472;-44
2022/06/21 02:21:56;;;;;;;4.67;2.07;;;16.60;92.10;;;;;;5078045;28;20429;-46
2022/06/21 02:24:25;;;;;;;2.90;2.03;;;16.50;92.30;;;;;;5077035;28;20562;-49
2022/06/21 02:26:52;;;;;;;2.10;1.73;;;16.40;92.30;;;;;;5077150;28;20175;-50
2022/06/21 02:29:17;;;;;;;2.00;1.80;;;16.40;92.60;;;;;;5076424;28;20427;-48
2022/06/21 02:31:44;;;;;;;2.20;2.00;;;16.40;92.80;;;;;;5076861;28;20476;-44
2022/06/21 02:34:22;;;;;;;2.30;2.07;;;16.30;92.70;;;;;;5077342;28;20261;-47
2022/06/21 02:36:55;;;;;;;2.20;2.00;;;16.40;92.90;;;;;;5076377;28;20441;-48
2022/06/21 02:39:23;;;;;;;2.50;2.30;;;16.30;93.20;;;;;;5076666;28;20467;-47
2022/06/21 02:42:07;;;;;;;3.20;2.10;;;16.30;93.60;;;;;;5075746;28;20435;-47
2022/06/21 02:44:45;;;;;;;3.07;2.07;;;16.40;93.70;;;;;;5076502;28;20444;-46
2022/06/21 02:47:17;;;;;;;3.27;1.90;;;16.50;93.60;;;;;;5075954;28;20840;-44
2022/06/21 02:49:47;;;;;;;2.20;1.90;;;16.70;93.60;;;;;;5074929;28;20671;-47
2022/06/21 02:52:21;;;;;;;3.37;1.60;;;16.80;93.40;;;;;;5075647;28;20419;-45
2022/06/21 02:55:14;;;;;;;2.90;2.07;;;16.90;93.20;;;;;;5079796;28;20427;-46
2022/06/21 02:57:45;;;;;;;2.03;1.60;;;17.00;92.90;;;;;;5080026;28;20428;-48
2022/06/21 03:00:17;;;;;;;2.83;2.07;;;17.10;92.70;;;;;;5080223;28;20630;-47
2022/06/21 03:02:43;;;;;;;2.17;1.70;;;17.10;92.30;;;;;;5079808;28;20825;-46
2022/06/21 03:05:17;;;;;;;2.23;1.83;;;17.20;92.20;;;;;;5080222;28;20426;-44
2022/06/21 03:07:47;;;;;;;2.40;1.83;;;17.20;92.10;;;;;;5080542;28;20421;-48
2022/06/21 03:10:20;;;;;;;2.20;2.00;;;17.20;92.10;;;;;;5079377;28;20529;-45
2022/06/21 03:12:48;;;;;;;2.10;1.80;;;17.20;91.40;;;;;;5079411;28;20420;-46
2022/06/21 03:15:13;;;;;;;2.60;2.00;;;17.10;91.40;;;;;;5078325;28;20742;-46
2022/06/21 03:17:44;;;;;;;2.50;1.97;;;17.10;91.90;;;;;;5080100;28;20506;-48
2022/06/21 03:20:13;;;;;;;3.17;1.83;;;17.10;91.80;;;;;;5079794;28;20205;-44
2022/06/21 03:22:39;;;;;;;2.53;1.80;;;17.10;91.40;;;;;;5079864;28;20495;-47
2022/06/21 03:25:07;;;;;;;5.50;2.30;;;17.10;91.50;;;;;;5079728;28;20426;-47
2022/06/21 03:27:46;;;;;;;2.63;1.67;;;17.20;91.70;;;;;;5079423;28;20229;-43
2022/06/21 03:30:12;;;;;;;2.87;2.10;;;17.20;91.50;;;;;;5078697;28;20464;-47
2022/06/21 03:32:38;;;;;;;3.50;1.90;;;17.30;91.40;;;;;;5078888;28;20412;-46
2022/06/21 03:35:05;;;;;;;2.57;1.90;;;17.30;91.10;;;;;;5079327;28;20429;-50
2022/06/21 03:37:30;;;;;;;2.30;1.80;;;17.40;91.00;;;;;;5078956;28;20176;-47
2022/06/21 03:42:45;;;;;;;1.93;1.53;;;17.30;90.30;;;;;;5079164;28;20183;-46
2022/06/21 03:45:26;;;;;;;3.80;1.90;;;17.40;90.50;;;;;;5077696;28;20523;-46
2022/06/21 03:47:58;;;;;;;5.47;2.10;;;17.40;89.60;;;;;;5079274;28;20741;-48
2022/06/21 03:50:45;;;;;;;2.07;1.87;;;17.40;87.10;;;;;;5062416;28;20870;-45
2022/06/21 03:53:25;;;;;;;1.70;1.60;;;17.40;86.80;;;;;;5078959;28;20452;-45
2022/06/21 03:56:12;;;;;;;2.10;1.60;;;17.40;88.20;;;;;;5078796;28;20445;-45
2022/06/21 03:59:01;;;;;;;3.07;2.60;;;17.40;88.10;;;;;;5079958;28;20416;-45
2022/06/21 04:01:36;;;;;;;2.47;1.73;;;17.40;86.70;;;;;;5078988;28;20433;-45
2022/06/21 04:04:05;;;;;;;4.50;1.60;;;17.40;85.80;;;;;;5079412;28;20396;-49
2022/06/21 04:06:44;;;;;;;3.00;1.97;;;17.50;86.80;;;;;;5078995;28;20538;-48
2022/06/21 04:09:20;;;;;;;2.87;1.80;;;17.80;85.30;;;;;;5079014;28;20410;-51
2022/06/21 04:12:12;;;;;;;2.63;1.73;;;18.00;86.40;;;;;;5077870;28;20425;-52
2022/06/21 04:14:41;;;;;;;2.30;1.50;;;18.30;82.90;;;;;;5072990;28;20699;-51
2022/06/21 04:17:18;;;;;;;2.30;1.67;;;18.50;81.80;;;;;;5078679;28;20421;-49
2022/06/21 04:20:07;;;;;;;3.27;1.70;;;18.60;81.30;;;;;;5077045;28;20490;-48
2022/06/21 04:22:41;;;;;;;1.80;1.40;;;18.70;80.10;;;;;;5077270;28;20428;-50
2022/06/21 04:25:28;;;;;;;4.07;1.83;;;18.90;79.00;;;;;;5077751;28;20748;-49
2022/06/21 04:28:11;;;;;;;2.70;1.77;;;19.00;79.10;;;;;;5077993;28;20439;-48
2022/06/21 04:30:57;;;;;;;2.20;1.80;;;19.10;78.00;;;;;;5076678;28;20769;-50
2022/06/21 04:33:36;;;;;;;4.63;1.83;;;19.20;78.10;;;;;;5075174;28;20414;-51
2022/06/21 04:36:16;;;;;;;2.97;1.87;;;19.40;77.00;;;;;;5075423;28;20433;-52
2022/06/21 04:39:02;;;;;;;3.20;1.97;;;19.30;76.00;;;;;;5075463;28;20681;-52
2022/06/21 04:42:08;;;;;;;3.83;1.90;;;19.20;75.10;;;;;;5082698;28;20538;-51
2022/06/21 04:44:35;;;;;;;3.03;1.80;;;19.10;75.70;;;;;;5053399;28;20415;-49
2022/06/21 04:47:22;;;;;;;2.73;2.10;;;18.90;76.10;;;;;;5077300;28;20446;-48
2022/06/21 04:50:29;;;;;;;2.30;1.73;;;18.80;76.30;;;;;;5074395;28;20473;-51
2022/06/21 04:53:05;;;;;;;2.20;1.83;;;18.90;76.50;;;;;;4978417;28;20431;-49
2022/06/21 04:55:59;;;;;;;2.20;1.80;;;18.90;75.80;;;;;;5069188;28;20702;-48
2022/06/21 04:58:25;;;;;;;2.50;1.80;;;18.90;75.80;;;;;;5074283;28;20797;-50
2022/06/21 05:00:52;;;;;;;2.60;1.90;;;18.80;75.30;;;;;;5074768;28;20716;-51
2022/06/21 05:03:42;;;;;;;2.27;1.80;;;18.70;75.30;;;;;;5074489;28;20439;-48
2022/06/21 05:06:10;;;;;;;3.03;2.03;;;18.60;77.60;;;;;;5074989;28;20431;-47
2022/06/21 05:08:36;;;;;;;2.53;1.80;;;18.60;76.80;;;;;;5071290;28;20417;-51
2022/06/21 05:11:02;;;;;;;2.17;1.97;;;18.60;78.20;;;;;;5072152;28;21021;-48
2022/06/21 05:13:31;;;;;;;3.10;2.33;;;18.60;77.80;;;;;;5071784;28;20176;-48
2022/06/21 05:16:02;;;;;;;2.47;2.23;;;18.70;77.80;;;;;;5072366;28;20178;-49
2022/06/21 05:18:38;;;;;;;2.23;1.90;;;18.70;78.10;;;;;;5071719;28;20860;-49
2022/06/21 05:21:12;;;;;;;3.80;2.13;;;18.70;77.70;;;;;;5070588;28;20467;-48
2022/06/21 05:23:38;;;;;;;2.30;2.10;;;18.70;78.50;;;;;;5069161;28;20480;-49
2022/06/21 05:26:10;;;;;;;3.67;2.30;;;18.70;78.50;;;;;;5068042;28;20428;-50
2022/06/21 05:29:06;;;;;;;3.10;2.30;;;18.70;79.40;;;;;;5068872;28;20419;-50
2022/06/21 05:31:39;;;;;;;2.60;2.23;;;18.80;79.00;;;;;;5069343;28;20494;-49
2022/06/21 05:34:18;;;;;;;2.60;2.40;;;18.90;79.10;;;;;;5071445;28;20695;-48
2022/06/21 05:37:14;;;;;;;3.17;2.47;;;18.90;79.60;;;;;;5070057;28;20482;-49
2022/06/21 05:39:48;;;;;;;3.00;2.57;;;18.90;80.10;;;;;;5072571;28;20462;-50
2022/06/21 05:42:16;;;;;;;3.20;2.90;;;18.80;81.10;;;;;;5072278;28;20464;-49
2022/06/21 05:44:53;;;;;;;2.60;2.40;;;18.70;81.90;;;;;;5070980;28;20513;-48
2022/06/21 05:47:31;;;;;;;3.73;2.50;;;18.70;82.60;;;;;;5071362;28;20577;-51
2022/06/21 05:49:57;;;;;;;2.70;2.50;;;18.60;83.00;;;;;;5070072;28;20412;-50
2022/06/21 05:52:42;;;;;;;4.47;3.00;;;18.60;83.60;;;;;;5071527;28;20432;-49
2022/06/21 05:55:24;;;;;;;4.93;2.60;;;18.60;84.10;;;;;;5073963;28;20447;-50
2022/06/21 05:57:56;;;;;;;3.30;3.00;;;18.70;84.50;;;;;;5089176;28;20771;-50
2022/06/21 06:00:26;;;;;;;3.37;2.87;;;18.70;84.50;;;;;;5092202;28;20538;-52
2022/06/21 06:03:01;;;;;;;3.03;2.40;;;18.70;84.90;;;;;;5088301;28;20839;-50
2022/06/21 06:05:31;;;;;;;2.97;2.60;;;18.70;85.20;;;;;;5090093;28;20406;-49
2022/06/21 06:08:10;;;;;;;3.87;2.87;;;18.80;85.00;;;;;;5088847;28;20430;-49
2022/06/21 06:10:37;;;;;;;2.30;2.10;;;18.90;85.00;;;;;;5087443;28;20689;-47
2022/06/21 06:13:10;;;;;;;5.07;2.70;;;19.00;85.00;;;;;;5090387;28;20530;-49
2022/06/21 06:15:46;;;;;;;2.60;2.40;;;19.20;84.50;;;;;;5088185;28;20666;-49
2022/06/21 06:18:26;;;;;;;4.27;3.00;;;19.30;85.10;;;;;;5089173;28;20435;-48
2022/06/21 06:21:04;;;;;;;5.47;2.60;;;19.50;83.90;;;;;;5087945;28;20549;-53
2022/06/21 06:23:49;;;;;;;3.80;2.90;;;19.70;83.60;;;;;;5088837;28;20474;-49
2022/06/21 06:26:23;;;;;;;3.47;3.17;;;19.80;82.90;;;;;;5089808;28;20454;-48
2022/06/21 06:29:11;;;;;;;2.50;2.30;;;19.80;82.30;;;;;;5088473;28;20490;-50
2022/06/21 06:31:39;;;;;;;4.27;3.10;;;19.80;82.80;;;;;;5091736;28;20463;-47
2022/06/21 06:34:14;;;;;;;3.37;2.60;;;20.00;82.20;;;;;;5092286;28;20430;-47
2022/06/21 06:36:55;;;;;;;4.47;3.27;;;20.00;80.90;;;;;;5093694;28;20422;-47
2022/06/21 06:39:30;;;;;;;5.27;3.60;;;20.00;81.10;;;;;;5093424;28;20530;-48
2022/06/21 06:42:04;;;;;;;5.73;4.27;;;20.10;80.70;;;;;;5091484;28;20577;-52
2022/06/21 06:44:38;;;;;;;3.60;3.30;;;20.00;81.40;;;;;;5093731;28;20862;-47
2022/06/21 06:47:18;;;;;;;4.00;3.20;;;20.00;82.10;;;;;;5091495;28;20416;-47
2022/06/21 06:49:50;;;;;;;3.33;3.03;;;20.30;82.30;;;;;;5094040;28;20410;-51
2022/06/21 06:52:30;;;;;;;5.03;3.27;;;20.50;81.30;;;;;;5094207;28;20443;-48
2022/06/21 06:55:03;;;;;;;3.70;3.40;;;20.80;80.60;;;;;;5094858;28;20415;-48
2022/06/21 06:57:38;;;;;;;4.00;3.33;;;21.10;79.90;;;;;;5095402;28;20530;-46
2022/06/21 07:00:22;;;;;;;2.40;2.20;;;21.20;79.20;;;;;;5091574;28;20533;-52
2022/06/21 07:02:56;;;;;;;4.33;2.90;;;21.60;78.80;;;;;;5090832;28;20551;-47
2022/06/21 07:05:45;;;;;;;3.30;3.00;;;21.90;76.80;;;;;;5091247;28;20807;-49
2022/06/21 07:08:19;;;;;;;3.87;3.47;;;21.80;76.50;;;;;;5076892;28;20466;-47
2022/06/21 07:10:46;;;;;;;4.83;4.10;;;21.90;76.00;;;;;;5090020;28;20421;-48
2022/06/21 07:13:12;;;;;;;2.77;2.50;;;21.90;75.80;;;;;;5089992;28;20535;-51
2022/06/21 07:15:41;;;;;;;3.20;2.90;;;22.00;76.00;;;;;;5092285;28;20842;-50
2022/06/21 07:18:13;;;;;;;4.03;3.10;;;22.20;75.80;;;;;;5089621;28;20194;-49
2022/06/21 07:20:41;;;;;;;3.53;3.23;;;22.30;75.00;;;;;;5092367;28;20525;-48
2022/06/21 07:23:17;;;;;;;4.80;3.70;;;22.30;75.00;;;;;;5090705;28;20456;-51
2022/06/21 07:26:05;;;;;;;3.37;2.90;;;22.30;74.10;;;;;;5093326;28;20398;-49
2022/06/21 07:28:45;;;;;;;4.60;3.40;;;22.20;74.80;;;;;;5092134;28;21053;-50
2022/06/21 07:31:13;;;;;;;3.47;3.17;;;22.10;75.10;;;;;;5091443;28;20634;-47
2022/06/21 07:33:46;;;;;;;6.27;3.80;;;22.00;75.00;;;;;;5093376;28;20520;-50
2022/06/21 07:36:18;;;;;;;7.63;2.70;;;22.00;75.10;;;;;;5093671;28;20472;-50
2022/06/21 07:38:47;;;;;;;3.07;2.50;;;22.20;75.30;;;;;;5094721;28;20412;-52
2022/06/21 07:41:58;;;;;;;3.30;3.00;;;22.50;74.50;;;;;;5094962;28;20475;-48
2022/06/21 07:45:06;;;;;;;4.57;3.40;;;22.60;72.10;;;;;;5066579;28;20582;-48
2022/06/21 07:47:48;;;;;;;3.40;2.90;;;22.70;70.60;;;;;;5095672;28;20727;-53
2022/06/21 07:50:59;;;;;;;3.70;2.47;;;22.60;70.70;;;;;;5098221;28;20410;-51
2022/06/21 07:53:28;;;;;;;3.93;3.03;;;22.60;71.40;;;;;;5083171;28;20442;-48
2022/06/21 07:56:03;;;;;;;6.80;3.33;;;22.70;66.70;;;;;;5096943;28;20508;-48
2022/06/21 07:58:53;;;;;;;3.70;3.30;;;22.70;67.10;;;;;;5095646;28;20408;-47
2022/06/21 08:07:11;;;;;;;3.80;3.50;;;21.90;67.30;;;;;;5096298;28;20700;-47
2022/06/21 08:10:11;;;;;;;5.33;3.20;;;21.70;67.30;;;;;;5095213;28;20482;-50
2022/06/21 08:12:36;;;;;;;6.40;3.23;;;21.50;68.70;;;;;;5077379;28;20476;-48
2022/06/21 08:15:04;;;;;;;4.57;2.90;;;21.30;69.20;;;;;;5096425;28;20462;-48
2022/06/21 08:17:50;;;;;;;3.30;2.97;;;21.20;69.80;;;;;;5094584;28;20186;-47
2022/06/21 08:20:21;;;;;;;4.33;3.07;;;21.30;70.30;;;;;;5096679;28;20469;-48
2022/06/21 08:23:19;;;;;;;3.23;2.93;;;21.50;70.00;;;;;;5095670;28;20453;-48
2022/06/21 08:25:51;;;;;;;3.47;3.17;;;21.70;69.70;;;;;;5091383;28;20851;-50
2022/06/21 08:28:47;;;;;;;3.43;2.90;;;21.90;69.00;;;;;;5095750;28;20685;-51
2022/06/21 08:31:35;;;;;;;4.70;2.80;;;22.10;69.40;;;;;;5092641;28;20479;-48
2022/06/21 08:34:23;;;;;;;3.63;2.67;;;22.60;68.50;;;;;;5097670;28;20460;-51
2022/06/21 08:36:50;;;;;;;3.80;3.03;;;22.90;66.30;;;;;;5096295;28;20480;-50
2022/06/21 08:39:35;;;;;;;3.20;2.90;;;23.10;65.80;;;;;;5097481;28;20418;-54
2022/06/21 08:42:16;;;;;;;3.27;2.80;;;23.10;66.20;;;;;;5096479;28;20495;-50
2022/06/21 08:48:20;;;;;;;3.07;2.63;;;23.30;64.30;;;;;;5094962;28;20429;-50
2022/06/21 08:50:57;;;;;;;6.23;3.27;;;23.20;65.00;;;;;;5096871;28;20487;-51
2022/06/21 08:53:52;;;;;;;3.23;2.90;;;23.10;65.20;;;;;;5095654;28;20573;-48
2022/06/21 08:56:29;;;;;;;4.50;3.30;;;22.80;66.00;;;;;;5059965;28;20438;-52
2022/06/21 08:59:06;;;;;;;5.70;3.00;;;22.70;68.10;;;;;;5093510;28;20459;-52
2022/06/21 09:01:44;;;;;;;4.47;3.20;;;22.70;67.80;;;;;;5096870;28;20456;-48
2022/06/21 09:04:51;;;;;;;5.00;3.60;;;22.70;66.20;;;;;;5095597;28;20436;-51
2022/06/21 09:07:42;;;;;;;3.63;2.73;;;22.80;65.50;;;;;;5090361;28;20734;-47
2022/06/21 09:10:47;;;;;;;4.83;2.60;;;23.00;66.60;;;;;;5096064;28;20417;-53
2022/06/21 09:13:41;;;;;;;3.00;2.70;;;23.30;66.10;;;;;;5081070;28;20429;-49
2022/06/21 09:16:12;;;;;;;3.60;2.90;;;23.50;65.50;;;;;;5095443;28;20420;-51
2022/06/21 09:19:35;;;;;;;3.70;2.80;;;23.80;63.10;;;;;;5096673;28;20418;-51
2022/06/21 09:22:30;;;;;;;5.03;3.27;;;24.30;64.00;;;;;;5011557;28;20453;-50
2022/06/21 09:25:15;;;;;;;3.57;3.00;;;24.90;60.70;;;;;;5010085;28;20433;-47
2022/06/21 09:27:46;;;;;;;5.37;3.03;;;25.30;58.70;;;;;;5069722;28;20706;-50
2022/06/21 09:30:26;;;;;;;4.33;3.37;;;25.60;58.10;;;;;;5094026;28;20806;-47
2022/06/21 09:33:06;;;;;;;7.53;3.50;;;25.80;56.90;;;;;;5093789;28;20879;-55
2022/06/21 09:35:53;;;;;;;3.33;2.97;;;25.90;56.60;;;;;;5093498;28;20418;-49
2022/06/21 09:38:28;;;;;;;5.30;3.90;;;26.10;56.40;;;;;;5093360;28;20415;-51
2022/06/21 09:41:05;;;;;;;3.70;3.30;;;26.00;55.40;;;;;;5095815;28;20547;-49
2022/06/21 09:43:50;;;;;;;3.87;3.10;;;25.70;55.60;;;;;;5094291;28;20417;-54
2022/06/21 09:46:18;;;;;;;4.90;3.30;;;25.80;57.00;;;;;;5093866;28;20414;-52
2022/06/21 09:49:04;;;;;;;4.07;3.67;;;26.20;55.40;;;;;;5096094;28;20513;-52
2022/06/21 09:51:48;;;;;;;4.20;3.50;;;26.40;55.20;;;;;;5094704;28;20428;-50
2022/06/21 09:54:23;;;;;;;4.13;3.23;;;26.90;55.70;;;;;;5093798;28;20413;-50
2022/06/21 09:57:00;;;;;;;4.23;3.20;;;27.10;54.20;;;;;;5092691;28;20449;-53
2022/06/21 09:59:41;;;;;;;4.70;3.47;;;27.40;53.90;;;;;;5093129;28;20466;-49
2022/06/21 10:02:24;;;;;;;5.03;3.97;;;27.70;53.30;;;;;;5093557;28;20464;-48
2022/06/21 10:05:17;;;;;;;6.20;3.60;;;27.90;51.90;;;;;;5093222;28;20443;-49
2022/06/21 10:07:46;;;;;;;4.43;3.60;;;27.50;52.30;;;;;;5092607;28;20673;-51
2022/06/21 10:10:38;;;;;;;4.20;3.77;;;27.10;52.60;;;;;;5091899;28;20565;-51
2022/06/21 10:13:24;;;;;;;4.77;3.57;;;26.90;54.30;;;;;;5078078;28;20908;-50
2022/06/21 10:16:05;;;;;;;9.20;4.93;;;26.90;53.20;;;;;;5093094;28;20406;-51
2022/06/21 10:18:40;;;;;;;4.43;4.13;;;27.20;53.20;;;;;;5092347;28;20421;-52
2022/06/21 10:21:18;;;;;;;5.63;4.37;;;27.30;52.30;;;;;;5093781;28;20458;-48
2022/06/21 10:23:56;;;;;;;3.80;3.50;;;27.20;52.60;;;;;;5091269;28;20492;-50
2022/06/21 10:26:21;;;;;;;4.63;3.20;;;27.00;52.80;;;;;;5093800;28;20700;-53
2022/06/21 10:28:56;;;;;;;4.37;4.00;;;27.10;53.90;;;;;;5092154;28;20676;-52
2022/06/21 10:31:37;;;;;;;3.77;3.10;;;27.40;52.50;;;;;;5092749;28;20228;-49
2022/06/21 10:34:08;;;;;;;5.33;4.13;;;27.60;52.20;;;;;;5092345;28;20545;-51
2022/06/21 10:37:02;;;;;;;4.33;3.93;;;28.10;52.40;;;;;;5094318;28;20464;-51
2022/06/21 10:39:28;;;;;;;6.20;4.77;;;28.50;51.50;;;;;;5091966;28;20461;-55
2022/06/21 10:45:22;;;;;;;4.27;3.87;;;28.70;50.50;;;;;;5085623;28;20225;-54
2022/06/21 10:47:48;;;;;;;14.67;13.07;;;28.60;50.30;;;;;;5093164;28;20514;-51
2022/06/21 10:50:20;;;;;;;4.17;3.70;;;28.70;51.90;;;;;;5092876;28;20530;-51
2022/06/21 10:53:05;;;;;;;4.67;4.27;;;29.00;50.10;;;;;;5093867;28;20184;-48
2022/06/21 10:55:49;;;;;;;30.37;20.60;;;29.10;50.60;;;;;;5091949;28;20753;-52
2022/06/21 10:58:29;;;;;;;16.70;11.80;;;29.40;50.40;;;;;;5089389;28;20818;-53
2022/06/21 11:01:21;;;;;;;21.77;19.53;;;29.80;50.20;;;;;;5090014;28;20957;-49
2022/06/21 11:03:58;;;;;;;5.67;5.10;;;30.20;49.70;;;;;;5089208;28;20975;-48
2022/06/21 11:06:48;;;;;;;7.50;6.37;;;30.60;47.90;;;;;;5092059;28;20723;-52
2022/06/21 11:09:20;;;;;;;7.70;6.43;;;30.50;48.40;;;;;;5093362;28;20401;-53
2022/06/21 11:11:58;;;;;;;9.20;7.73;;;30.70;48.20;;;;;;5091714;28;20734;-48
2022/06/21 11:14:48;;;;;;;22.87;16.23;;;30.90;47.60;;;;;;5092227;28;20494;-53
2022/06/21 11:17:46;;;;;;;5.70;5.10;;;31.50;47.50;;;;;;5094794;28;20999;-46
2022/06/21 11:20:15;;;;;;;10.47;9.47;;;31.20;46.60;;;;;;5097068;28;20568;-50
2022/06/21 11:22:41;;;;;;;13.13;11.83;;;31.00;47.20;;;;;;5097707;28;20688;-45
2022/06/21 11:25:35;;;;;;;4.40;4.00;;;31.00;46.90;;;;;;5097616;28;20400;-45
2022/06/21 11:28:18;;;;;;;8.27;7.63;;;30.50;46.90;;;;;;5097238;28;20178;-46
2022/06/21 11:30:53;;;;;;;4.70;4.30;;;29.70;47.90;;;;;;5094564;28;20914;-48
2022/06/21 11:33:31;;;;;;;4.40;4.00;;;29.40;49.50;;;;;;5096505;28;20414;-47
2022/06/21 11:36:11;;;;;;;5.23;4.33;;;29.20;49.20;;;;;;5094532;28;20421;-48
2022/06/21 11:38:51;;;;;;;3.90;3.60;;;29.20;49.30;;;;;;5094910;28;20410;-47
2022/06/21 11:42:06;;;;;;;4.90;4.50;;;29.40;49.10;;;;;;5092675;28;20922;-45
2022/06/21 11:44:45;;;;;;;5.37;4.87;;;29.50;49.30;;;;;;5077928;28;20467;-46
2022/06/21 11:47:14;;;;;;;5.23;4.70;;;29.30;49.00;;;;;;5091195;28;20429;-46
2022/06/21 11:50:05;;;;;;;4.00;3.70;;;28.70;49.60;;;;;;5093864;28;20519;-48
2022/06/21 11:52:33;;;;;;;4.63;4.23;;;28.40;50.50;;;;;;5094790;28;20465;-48
2022/06/21 11:55:23;;;;;;;5.20;4.50;;;28.20;51.00;;;;;;5094907;28;20577;-46
2022/06/21 11:58:10;;;;;;;4.90;4.50;;;27.80;51.30;;;;;;5095000;28;20418;-46
2022/06/21 12:00:47;;;;;;;4.57;4.17;;;27.40;52.70;;;;;;5095812;28;20458;-47
2022/06/21 12:03:31;;;;;;;5.10;4.40;;;27.50;52.30;;;;;;5094818;28;20422;-48
2022/06/21 12:06:20;;;;;;;4.20;3.80;;;27.70;52.50;;;;;;5093897;28;20423;-49
2022/06/21 12:09:15;;;;;;;4.70;4.20;;;28.10;52.20;;;;;;5078178;28;20419;-54
2022/06/21 12:12:01;;;;;;;5.17;4.77;;;28.80;51.30;;;;;;5076448;28;20434;-50
2022/06/21 12:14:45;;;;;;;5.70;4.83;;;29.00;50.80;;;;;;5095793;28;20562;-53
2022/06/21 12:17:14;;;;;;;5.10;4.67;;;29.20;50.70;;;;;;5096745;28;20468;-52
2022/06/21 12:19:42;;;;;;;4.27;3.80;;;29.40;51.20;;;;;;5097118;28;20552;-50
2022/06/21 12:22:11;;;;;;;5.30;4.80;;;29.80;50.30;;;;;;5094956;28;20526;-52
2022/06/21 12:24:38;;;;;;;4.80;4.40;;;29.80;50.40;;;;;;5094168;28;20430;-55
2022/06/21 12:27:09;;;;;;;5.83;5.20;;;29.50;50.20;;;;;;5094657;28;20430;-51
2022/06/21 12:29:34;;;;;;;5.80;4.70;;;29.30;50.20;;;;;;5094859;28;20423;-52
2022/06/21 12:32:01;;;;;;;6.60;5.33;;;29.00;51.10;;;;;;5095214;28;20509;-51
2022/06/21 12:34:40;;;;;;;7.40;5.40;;;28.80;51.10;;;;;;5094069;28;20211;-52
2022/06/21 12:37:12;;;;;;;6.07;5.43;;;28.30;51.80;;;;;;5094285;28;20435;-52
2022/06/21 12:40:04;;;;;;;5.73;5.23;;;28.10;53.00;;;;;;5094672;28;20519;-51
2022/06/21 12:42:45;;;;;;;7.40;5.57;;;28.00;53.00;;;;;;5093962;28;20431;-50
2022/06/21 12:45:32;;;;;;;5.20;4.80;;;27.90;53.20;;;;;;5095549;28;20883;-50
2022/06/21 12:48:22;;;;;;;5.40;5.00;;;27.80;53.70;;;;;;5095484;28;20490;-51
2022/06/21 12:51:04;;;;;;;8.37;5.40;;;27.60;54.40;;;;;;5093428;28;20414;-50
2022/06/21 12:53:40;;;;;;;5.23;4.73;;;27.70;54.10;;;;;;5094005;28;20434;-50
2022/06/21 12:57:03;;;;;;;6.63;4.50;;;28.00;54.70;;;;;;5092711;28;20436;-49
2022/06/21 12:59:35;;;;;;;5.10;4.60;;;28.90;54.50;;;;;;5010113;28;20754;-50
2022/06/21 13:02:06;;;;;;;7.10;5.07;;;29.80;53.30;;;;;;5008466;28;20828;-50
2022/06/21 13:05:13;;;;;;;5.20;4.67;;;30.70;52.40;;;;;;5056014;28;20420;-51
2022/06/21 13:08:09;;;;;;;5.00;4.50;;;31.60;51.00;;;;;;5095418;28;20436;-53
2022/06/21 13:10:49;;;;;;;4.80;4.50;;;32.40;49.60;;;;;;5095563;28;20411;-51
2022/06/21 13:13:36;;;;;;;4.83;4.30;;;33.00;49.10;;;;;;5092247;28;20447;-51
2022/06/21 13:16:38;;;;;;;5.20;4.77;;;33.60;47.90;;;;;;5094234;28;20418;-54
2022/06/21 13:19:28;;;;;;;6.10;5.60;;;34.10;46.40;;;;;;5093589;28;20420;-50
2022/06/21 13:22:11;;;;;;;7.13;5.30;;;34.30;45.50;;;;;;5093424;28;20513;-52
2022/06/21 13:24:58;;;;;;;5.67;5.27;;;34.50;46.00;;;;;;5093096;28;20406;-54
2022/06/21 13:27:32;;;;;;;5.87;5.37;;;34.10;45.00;;;;;;5093926;28;20385;-53
2022/06/21 13:30:22;;;;;;;7.60;6.90;;;33.80;45.80;;;;;;5094546;28;20386;-53
2022/06/21 13:33:25;;;;;;;6.10;5.60;;;33.10;45.90;;;;;;5093317;28;20428;-53
2022/06/21 13:36:08;;;;;;;6.57;5.80;;;32.20;46.90;;;;;;5094637;28;20678;-51
2022/06/21 13:38:48;;;;;;;7.33;6.43;;;31.10;48.30;;;;;;5092616;28;20461;-48
2022/06/21 13:44:23;;;;;;;6.30;5.70;;;30.00;51.20;;;;;;5094561;28;20476;-54
2022/06/21 13:46:54;;;;;;;8.00;5.57;;;30.70;51.10;;;;;;5095476;28;20553;-51
2022/06/21 13:49:31;;;;;;;5.50;5.10;;;31.60;51.10;;;;;;5095036;28;20772;-51
2022/06/21 13:52:06;;;;;;;6.53;6.03;;;32.60;49.20;;;;;;5092559;28;20468;-51
2022/06/21 13:54:37;;;;;;;7.47;6.87;;;33.10;47.00;;;;;;5095161;28;20471;-54
2022/06/21 13:57:25;;;;;;;7.40;6.80;;;33.30;46.50;;;;;;5094749;28;20567;-51
2022/06/21 13:59:53;;;;;;;9.10;6.47;;;33.00;46.80;;;;;;5075395;28;20536;-54
2022/06/21 14:02:24;;;;;;;6.60;6.00;;;32.60;47.00;;;;;;5094540;28;20435;-53